createdAt,value
2017-04-11T00:00:42.236Z,5.32
2017-04-11T00:01:43.475Z,5.3
2017-04-11T00:02:44.718Z,5.25
2017-04-11T00:03:46.019Z,5.3
2017-04-11T00:04:47.242Z,5.38
2017-04-11T00:05:48.491Z,5.25
2017-04-11T00:06:49.778Z,5.25
2017-04-11T00:07:51.051Z,5.3
2017-04-11T00:08:52.302Z,5.4
2017-04-11T00:09:53.546Z,5.41
2017-04-11T00:10:54.894Z,5.41
2017-04-11T00:11:56.239Z,5.43
2017-04-11T00:12:57.490Z,5.49
2017-04-11T00:13:58.714Z,5.32
2017-04-11T00:15:00.004Z,5.34
2017-04-11T00:16:01.254Z,5.28
2017-04-11T00:17:02.632Z,5.31
2017-04-11T00:18:03.876Z,5.28
2017-04-11T00:19:05.281Z,5.3
2017-04-11T00:20:06.411Z,5.28
2017-04-11T00:21:07.655Z,5.28
2017-04-11T00:22:08.901Z,5.31
2017-04-11T00:23:10.235Z,5.23
2017-04-11T00:24:11.515Z,5.32
2017-04-11T00:25:12.751Z,5.28
2017-04-11T00:26:14.002Z,5.22
2017-04-11T00:27:15.266Z,5.19
2017-04-11T00:28:16.483Z,5.16
2017-04-11T00:29:17.741Z,5.14
2017-04-11T00:30:19.130Z,5.28
2017-04-11T00:31:20.361Z,5.25
2017-04-11T00:32:21.596Z,5.2
2017-04-11T00:33:22.829Z,5.23
2017-04-11T00:34:24.073Z,5.23
2017-04-11T00:35:25.311Z,5.27
2017-04-11T00:36:26.547Z,5.23
2017-04-11T00:37:27.853Z,5.2
2017-04-11T00:38:29.086Z,5.22
2017-04-11T00:39:30.327Z,5.25
2017-04-11T00:40:31.561Z,5.2
2017-04-11T00:41:32.805Z,5.28
2017-04-11T00:42:34.137Z,5.35
2017-04-11T00:43:35.375Z,5.28
2017-04-11T00:44:36.618Z,5.35
2017-04-11T00:45:37.849Z,5.3
2017-04-11T00:46:39.084Z,5.27
2017-04-11T00:47:40.387Z,5.35
2017-04-11T00:48:41.686Z,5.25
2017-04-11T00:49:42.947Z,5.32
2017-04-11T00:50:44.203Z,5.23
2017-04-11T00:51:45.453Z,5.25
2017-04-11T00:52:46.673Z,5.3
2017-04-11T00:53:47.970Z,5.17
2017-04-11T00:54:49.211Z,5.23
2017-04-11T00:55:50.528Z,5.27
2017-04-11T00:56:51.779Z,5.19
2017-04-11T00:57:53.142Z,5.23
2017-04-11T00:58:54.401Z,5.25
2017-04-11T00:59:55.638Z,5.27
2017-04-11T01:00:56.875Z,5.27
2017-04-11T01:01:58.158Z,5.17
2017-04-11T01:02:59.408Z,5.16
2017-04-11T01:04:00.630Z,5.1
2017-04-11T01:05:01.871Z,5.1
2017-04-11T01:06:03.104Z,5.1
2017-04-11T01:07:04.361Z,5.23
2017-04-11T01:08:05.613Z,5.12
2017-04-11T01:09:06.860Z,5.13
2017-04-11T01:10:08.087Z,5.09
2017-04-11T01:11:09.345Z,5.13
2017-04-11T01:12:10.568Z,5.16
2017-04-11T01:13:11.865Z,5.07
2017-04-11T01:14:13.116Z,5.19
2017-04-11T01:15:14.372Z,5.14
2017-04-11T01:16:15.612Z,5.12
2017-04-11T01:17:16.849Z,5.14
2017-04-11T01:18:18.098Z,5.17
2017-04-11T01:19:19.331Z,5.16
2017-04-11T01:20:20.577Z,5.17
2017-04-11T01:21:21.938Z,5.19
2017-04-11T01:22:23.139Z,5.19
2017-04-11T01:23:24.496Z,5.14
2017-04-11T01:24:25.735Z,5.1
2017-04-11T01:25:26.974Z,5.12
2017-04-11T01:26:28.255Z,5.14
2017-04-11T01:27:29.476Z,5.07
2017-04-11T01:28:30.732Z,5.04
2017-04-11T01:29:32.089Z,5.07
2017-04-11T01:30:33.305Z,5.01
2017-04-11T01:31:34.545Z,4.96
2017-04-11T01:32:35.779Z,4.99
2017-04-11T01:33:37.057Z,4.99
2017-04-11T01:34:38.299Z,4.99
2017-04-11T01:35:39.628Z,4.95
2017-04-11T01:36:40.769Z,4.95
2017-04-11T01:37:42.004Z,4.98
2017-04-11T01:38:43.277Z,4.96
2017-04-11T01:39:44.474Z,4.88
2017-04-11T01:40:45.844Z,4.94
2017-04-11T01:41:47.073Z,4.92
2017-04-11T01:42:48.318Z,4.92
2017-04-11T01:43:49.572Z,4.99
2017-04-11T01:44:50.805Z,4.96
2017-04-11T01:45:52.081Z,4.92
2017-04-11T01:46:53.297Z,4.84
2017-04-11T01:47:54.557Z,4.83
2017-04-11T01:48:55.802Z,4.8
2017-04-11T01:49:57.035Z,4.83
2017-04-11T01:50:58.317Z,4.89
2017-04-11T01:51:59.571Z,4.94
2017-04-11T01:53:00.812Z,4.91
2017-04-11T01:54:02.073Z,4.84
2017-04-11T01:55:03.301Z,4.92
2017-04-11T01:56:04.564Z,4.92
2017-04-11T01:57:05.804Z,4.95
2017-04-11T01:58:07.036Z,4.98
2017-04-11T01:59:08.283Z,4.95
2017-04-11T02:00:09.577Z,4.94
2017-04-11T02:01:10.908Z,4.98
2017-04-11T02:02:12.095Z,4.99
2017-04-11T02:03:13.335Z,4.96
2017-04-11T02:04:14.565Z,5.04
2017-04-11T02:05:15.936Z,4.96
2017-04-11T02:06:17.160Z,5.07
2017-04-11T02:07:18.440Z,5.14
2017-04-11T02:08:19.671Z,5.14
2017-04-11T02:09:20.915Z,5.12
2017-04-11T02:10:22.237Z,5.13
2017-04-11T02:11:23.482Z,5.19
2017-04-11T02:12:24.709Z,5.16
2017-04-11T02:13:25.966Z,5.13
2017-04-11T02:14:27.187Z,5.19
2017-04-11T02:15:28.424Z,5.22
2017-04-11T02:16:29.655Z,5.17
2017-04-11T02:17:30.893Z,5.22
2017-04-11T02:18:32.133Z,5.27
2017-04-11T02:19:33.458Z,5.35
2017-04-11T02:20:34.807Z,5.37
2017-04-11T02:21:36.032Z,5.37
2017-04-11T02:22:37.309Z,5.3
2017-04-11T02:23:38.557Z,5.34
2017-04-11T02:24:39.805Z,5.37
2017-04-11T02:25:41.054Z,5.48
2017-04-11T02:26:42.289Z,5.48
2017-04-11T02:27:43.528Z,5.45
2017-04-11T02:28:44.766Z,5.45
2017-04-11T02:29:46.011Z,5.49
2017-04-11T02:30:47.248Z,5.48
2017-04-11T02:31:48.478Z,5.43
2017-04-11T02:32:49.815Z,5.43
2017-04-11T02:33:51.051Z,5.45
2017-04-11T02:34:52.411Z,5.56
2017-04-11T02:35:53.668Z,5.46
2017-04-11T02:36:54.905Z,5.56
2017-04-11T02:37:56.203Z,5.55
2017-04-11T02:38:57.466Z,5.56
2017-04-11T02:39:58.690Z,5.56
2017-04-11T02:40:59.930Z,5.55
2017-04-11T02:42:01.175Z,5.59
2017-04-11T02:43:02.454Z,5.53
2017-04-11T02:44:03.709Z,5.52
2017-04-11T02:45:04.960Z,5.53
2017-04-11T02:46:06.201Z,5.48
2017-04-11T02:47:07.439Z,5.49
2017-04-11T02:48:08.699Z,5.52
2017-04-11T02:49:10.000Z,5.5
2017-04-11T02:50:11.243Z,5.48
2017-04-11T02:51:12.490Z,5.48
2017-04-11T02:52:13.865Z,5.43
2017-04-11T02:53:15.003Z,5.48
2017-04-11T02:54:16.389Z,5.52
2017-04-11T02:55:17.616Z,5.43
2017-04-11T02:56:18.976Z,5.41
2017-04-11T02:57:20.200Z,5.53
2017-04-11T02:58:21.455Z,5.4
2017-04-11T02:59:22.708Z,5.46
2017-04-11T03:00:23.944Z,5.4
2017-04-11T03:01:25.204Z,5.46
2017-04-11T03:02:26.435Z,5.41
2017-04-11T03:03:27.726Z,5.46
2017-04-11T03:04:28.967Z,5.4
2017-04-11T03:05:30.229Z,5.49
2017-04-11T03:06:31.468Z,5.46
2017-04-11T03:07:32.705Z,5.43
2017-04-11T03:08:34.059Z,5.43
2017-04-11T03:09:35.289Z,5.5
2017-04-11T03:10:36.530Z,5.5
2017-04-11T03:11:37.769Z,5.48
2017-04-11T03:12:39.006Z,5.49
2017-04-11T03:13:40.335Z,5.48
2017-04-11T03:14:41.572Z,5.5
2017-04-11T03:15:42.816Z,5.49
2017-04-11T03:16:44.119Z,5.49
2017-04-11T03:17:45.285Z,5.56
2017-04-11T03:18:46.524Z,5.55
2017-04-11T03:19:47.761Z,5.49
2017-04-11T03:20:49.000Z,5.56
2017-04-11T03:21:50.330Z,5.59
2017-04-11T03:22:51.626Z,5.57
2017-04-11T03:23:52.879Z,5.59
2017-04-11T03:24:54.115Z,5.63
2017-04-11T03:25:55.368Z,5.6
2017-04-11T03:26:56.608Z,5.63
2017-04-11T03:27:57.914Z,5.64
2017-04-11T03:28:59.142Z,5.57
2017-04-11T03:30:00.433Z,5.56
2017-04-11T03:31:01.693Z,5.57
2017-04-11T03:32:02.957Z,5.56
2017-04-11T03:33:04.342Z,5.59
2017-04-11T03:34:05.623Z,5.57
2017-04-11T03:35:06.889Z,5.59
2017-04-11T03:36:08.117Z,5.55
2017-04-11T03:37:09.368Z,5.59
2017-04-11T03:38:10.606Z,5.53
2017-04-11T03:39:11.834Z,5.52
2017-04-11T03:40:13.071Z,5.5
2017-04-11T03:41:14.314Z,5.49
2017-04-11T03:42:15.591Z,5.49
2017-04-11T03:43:16.826Z,5.55
2017-04-11T03:44:18.060Z,5.56
2017-04-11T03:45:19.303Z,5.52
2017-04-11T03:46:20.546Z,5.5
2017-04-11T03:47:21.787Z,5.5
2017-04-11T03:48:23.058Z,5.56
2017-04-11T03:49:24.295Z,5.59
2017-04-11T03:50:25.536Z,5.57
2017-04-11T03:51:26.773Z,5.57
2017-04-11T03:52:28.047Z,5.59
2017-04-11T03:53:29.290Z,5.57
2017-04-11T03:54:30.513Z,5.52
2017-04-11T03:55:31.763Z,5.55
2017-04-11T03:56:33.004Z,5.57
2017-04-11T03:57:34.309Z,5.49
2017-04-11T03:58:35.542Z,5.52
2017-04-11T03:59:36.779Z,5.5
2017-04-11T04:00:38.024Z,5.5
2017-04-11T04:01:39.265Z,5.41
2017-04-11T04:02:40.508Z,5.4
2017-04-11T04:03:41.743Z,5.38
2017-04-11T04:04:43.001Z,5.41
2017-04-11T04:05:44.304Z,5.32
2017-04-11T04:06:45.790Z,5.4
2017-04-11T04:07:47.179Z,5.23
2017-04-11T04:08:48.423Z,5.25
2017-04-11T04:09:49.659Z,5.17
2017-04-11T04:10:50.909Z,5.17
2017-04-11T04:11:52.204Z,5.12
2017-04-11T04:12:53.423Z,5.22
2017-04-11T04:13:54.656Z,5.14
2017-04-11T04:14:55.975Z,5.16
2017-04-11T04:15:57.326Z,5.19
2017-04-11T04:16:58.482Z,5.09
2017-04-11T04:17:59.732Z,5.1
2017-04-11T04:19:00.986Z,5.13
2017-04-11T04:20:02.286Z,5.1
2017-04-11T04:21:03.539Z,4.99
2017-04-11T04:22:04.762Z,4.92
2017-04-11T04:23:05.998Z,5.02
2017-04-11T04:24:07.238Z,4.98
2017-04-11T04:25:08.647Z,4.99
2017-04-11T04:26:09.944Z,4.96
2017-04-11T04:27:11.167Z,4.94
2017-04-11T04:28:12.418Z,4.94
2017-04-11T04:29:13.651Z,5.02
2017-04-11T04:30:14.890Z,5.05
2017-04-11T04:31:16.128Z,5.13
2017-04-11T04:32:17.380Z,5.17
2017-04-11T04:33:18.631Z,5.12
2017-04-11T04:34:19.860Z,5.22
2017-04-11T04:35:21.089Z,5.12
2017-04-11T04:36:22.335Z,5.31
2017-04-11T04:37:23.571Z,5.3
2017-04-11T04:38:24.884Z,5.32
2017-04-11T04:39:26.180Z,5.27
2017-04-11T04:40:27.445Z,5.45
2017-04-11T04:41:28.661Z,5.4
2017-04-11T04:42:29.888Z,5.46
2017-04-11T04:43:31.117Z,5.48
2017-04-11T04:44:32.386Z,5.45
2017-04-11T04:45:33.704Z,5.55
2017-04-11T04:46:34.984Z,5.53
2017-04-11T04:47:36.226Z,5.57
2017-04-11T04:48:37.506Z,5.67
2017-04-11T04:49:38.716Z,5.57
2017-04-11T04:50:39.961Z,5.59
2017-04-11T04:51:41.206Z,5.73
2017-04-11T04:52:42.556Z,5.68
2017-04-11T04:53:43.790Z,5.81
2017-04-11T04:54:45.062Z,5.74
2017-04-11T04:55:46.335Z,5.78
2017-04-11T04:56:47.584Z,5.74
2017-04-11T04:57:48.843Z,5.71
2017-04-11T04:58:50.121Z,5.78
2017-04-11T04:59:51.399Z,5.88
2017-04-11T05:00:52.672Z,5.88
2017-04-11T05:01:53.905Z,5.91
2017-04-11T05:02:55.145Z,6.01
2017-04-11T05:03:56.381Z,6.03
2017-04-11T05:04:57.638Z,5.98
2017-04-11T05:05:58.881Z,6.01
2017-04-11T05:07:00.098Z,6.04
2017-04-11T05:08:01.331Z,6.07
2017-04-11T05:09:02.567Z,6.06
2017-04-11T05:10:03.930Z,6.16
2017-04-11T05:11:05.174Z,6.25
2017-04-11T05:12:06.399Z,6.13
2017-04-11T05:13:07.631Z,6.28
2017-04-11T05:14:08.861Z,6.3
2017-04-11T05:15:10.094Z,6.32
2017-04-11T05:16:11.333Z,6.29
2017-04-11T05:17:12.615Z,6.25
2017-04-11T05:18:14.028Z,6.28
2017-04-11T05:19:15.253Z,6.35
2017-04-11T05:20:16.484Z,6.28
2017-04-11T05:21:17.722Z,6.41
2017-04-11T05:22:18.959Z,6.41
2017-04-11T05:23:20.211Z,6.4
2017-04-11T05:24:21.440Z,6.47
2017-04-11T05:25:22.675Z,6.46
2017-04-11T05:26:23.910Z,6.44
2017-04-11T05:27:25.148Z,6.43
2017-04-11T05:28:26.410Z,6.41
2017-04-11T05:29:27.643Z,6.51
2017-04-11T05:30:28.884Z,6.47
2017-04-11T05:31:30.144Z,6.54
2017-04-11T05:32:31.439Z,6.58
2017-04-11T05:33:32.605Z,6.54
2017-04-11T05:34:33.850Z,6.58
2017-04-11T05:35:35.086Z,6.59
2017-04-11T05:36:36.386Z,6.59
2017-04-11T05:37:37.627Z,6.56
2017-04-11T05:38:38.878Z,6.65
2017-04-11T05:39:40.158Z,6.66
2017-04-11T05:40:41.427Z,6.69
2017-04-11T05:41:42.645Z,6.76
2017-04-11T05:42:44.004Z,6.77
2017-04-11T05:43:45.237Z,6.87
2017-04-11T05:44:46.484Z,6.69
2017-04-11T05:45:47.712Z,6.68
2017-04-11T05:46:48.964Z,6.89
2017-04-11T05:47:50.195Z,6.83
2017-04-11T05:48:51.428Z,6.87
2017-04-11T05:49:52.812Z,6.86
2017-04-11T05:50:54.058Z,6.86
2017-04-11T05:51:55.311Z,6.95
2017-04-11T05:52:56.560Z,6.83
2017-04-11T05:53:57.806Z,6.91
2017-04-11T05:54:59.034Z,6.97
2017-04-11T05:56:00.274Z,6.89
2017-04-11T05:57:01.522Z,7.07
2017-04-11T05:58:02.849Z,6.94
2017-04-11T05:59:04.095Z,7.05
2017-04-11T06:00:05.358Z,7.07
2017-04-11T06:01:06.682Z,7.07
2017-04-11T06:02:07.938Z,7.2
2017-04-11T06:03:09.232Z,7.19
2017-04-11T06:04:10.477Z,7.2
2017-04-11T06:05:11.721Z,7.23
2017-04-11T06:06:12.960Z,7.22
2017-04-11T06:07:14.209Z,7.35
2017-04-11T06:08:15.447Z,7.35
2017-04-11T06:09:16.799Z,7.37
2017-04-11T06:10:18.026Z,7.38
2017-04-11T06:11:19.259Z,7.42
2017-04-11T06:12:20.517Z,7.42
2017-04-11T06:13:21.759Z,7.49
2017-04-11T06:14:23.000Z,7.55
2017-04-11T06:15:24.304Z,7.52
2017-04-11T06:16:25.498Z,7.66
2017-04-11T06:17:26.739Z,7.62
2017-04-11T06:18:27.970Z,7.63
2017-04-11T06:19:29.219Z,7.69
2017-04-11T06:20:30.508Z,7.72
2017-04-11T06:21:31.805Z,7.72
2017-04-11T06:22:33.118Z,7.75
2017-04-11T06:23:34.383Z,7.75
2017-04-11T06:24:35.667Z,7.92
2017-04-11T06:25:36.922Z,7.89
2017-04-11T06:26:38.225Z,7.84
2017-04-11T06:27:39.497Z,7.79
2017-04-11T06:28:40.761Z,7.82
2017-04-11T06:29:42.127Z,7.89
2017-04-11T06:30:43.412Z,7.92
2017-04-11T06:31:44.636Z,7.9
2017-04-11T06:32:45.887Z,7.87
2017-04-11T06:33:47.157Z,7.78
2017-04-11T06:34:48.400Z,7.87
2017-04-11T06:35:49.702Z,7.81
2017-04-11T06:36:50.985Z,7.82
2017-04-11T06:37:52.294Z,7.78
2017-04-11T06:38:53.529Z,7.74
2017-04-11T06:39:54.805Z,7.71
2017-04-11T06:40:56.070Z,7.78
2017-04-11T06:41:57.328Z,7.89
2017-04-11T06:42:58.549Z,7.79
2017-04-11T06:43:59.786Z,7.94
2017-04-11T06:45:01.029Z,7.77
2017-04-11T06:46:02.270Z,7.79
2017-04-11T06:47:03.574Z,7.81
2017-04-11T06:48:04.845Z,7.81
2017-04-11T06:49:06.095Z,7.9
2017-04-11T06:50:07.340Z,7.85
2017-04-11T06:51:08.563Z,7.92
2017-04-11T06:52:09.803Z,8.03
2017-04-11T06:53:11.048Z,8
2017-04-11T06:54:12.837Z,8.04
2017-04-11T06:55:14.062Z,8.07
2017-04-11T06:56:15.300Z,8.03
2017-04-11T06:57:16.553Z,8.02
2017-04-11T06:58:17.793Z,8
2017-04-11T06:59:19.106Z,8.03
2017-04-11T07:00:20.361Z,8.12
2017-04-11T07:01:21.596Z,8.08
2017-04-11T07:02:22.835Z,8.07
2017-04-11T07:03:24.084Z,8.04
2017-04-11T07:04:25.320Z,8.08
2017-04-11T07:05:26.666Z,8.15
2017-04-11T07:06:27.917Z,8.11
2017-04-11T07:07:29.161Z,8.15
2017-04-11T07:08:30.434Z,8.18
2017-04-11T07:09:31.928Z,8.28
2017-04-11T07:10:33.271Z,8.28
2017-04-11T07:11:34.532Z,8.28
2017-04-11T07:12:35.783Z,8.18
2017-04-11T07:13:37.006Z,8.2
2017-04-11T07:14:38.251Z,8.18
2017-04-11T07:15:39.651Z,8.26
2017-04-11T07:16:40.975Z,8.21
2017-04-11T07:17:42.254Z,8.25
2017-04-11T07:18:43.496Z,8.25
2017-04-11T07:19:44.748Z,8.26
2017-04-11T07:20:46.049Z,8.26
2017-04-11T07:21:47.322Z,8.32
2017-04-11T07:22:48.567Z,8.29
2017-04-11T07:23:49.855Z,8.4
2017-04-11T07:24:51.085Z,8.37
2017-04-11T07:25:52.365Z,8.36
2017-04-11T07:26:53.596Z,8.39
2017-04-11T07:27:54.835Z,8.36
2017-04-11T07:28:56.180Z,8.36
2017-04-11T07:29:57.319Z,8.44
2017-04-11T07:30:58.568Z,8.44
2017-04-11T07:31:59.807Z,8.48
2017-04-11T07:33:01.075Z,8.44
2017-04-11T07:34:02.325Z,8.55
2017-04-11T07:35:03.576Z,8.68
2017-04-11T07:36:04.823Z,8.72
2017-04-11T07:37:06.078Z,8.76
2017-04-11T07:38:07.303Z,8.86
2017-04-11T07:39:08.563Z,8.9
2017-04-11T07:40:09.833Z,8.96
2017-04-11T07:41:11.095Z,9.09
2017-04-11T07:42:12.359Z,9.16
2017-04-11T07:43:13.680Z,9.28
2017-04-11T07:44:14.899Z,9.34
2017-04-11T07:45:16.128Z,9.48
2017-04-11T07:46:17.375Z,9.61
2017-04-11T07:47:18.625Z,9.78
2017-04-11T07:48:19.873Z,9.82
2017-04-11T07:49:21.116Z,9.93
2017-04-11T07:50:22.364Z,10.1
2017-04-11T07:51:23.653Z,10.24
2017-04-11T07:52:24.864Z,10.3
2017-04-11T07:53:26.129Z,10.33
2017-04-11T07:54:27.412Z,10.43
2017-04-11T07:55:28.608Z,10.46
2017-04-11T07:56:29.919Z,10.44
2017-04-11T07:57:31.158Z,10.46
2017-04-11T07:58:32.427Z,10.47
2017-04-11T07:59:33.693Z,10.4
2017-04-11T08:00:34.942Z,10.55
2017-04-11T08:01:36.306Z,10.46
2017-04-11T08:02:37.616Z,10.52
2017-04-11T08:03:38.866Z,10.59
2017-04-11T08:04:40.110Z,10.59
2017-04-11T08:05:41.355Z,10.46
2017-04-11T08:06:42.610Z,10.46
2017-04-11T08:07:43.932Z,10.47
2017-04-11T08:08:45.100Z,10.62
2017-04-11T08:09:46.392Z,10.62
2017-04-11T08:10:47.616Z,10.8
2017-04-11T08:11:48.911Z,10.91
2017-04-11T08:12:50.195Z,11.01
2017-04-11T08:13:51.458Z,11.01
2017-04-11T08:14:52.720Z,11.02
2017-04-11T08:15:53.947Z,11.07
2017-04-11T08:16:55.201Z,11.28
2017-04-11T08:17:56.499Z,11.19
2017-04-11T08:18:57.790Z,11.25
2017-04-11T08:19:59.068Z,11.36
2017-04-11T08:21:00.297Z,11.34
2017-04-11T08:22:01.565Z,11.31
2017-04-11T08:23:02.801Z,11.32
2017-04-11T08:24:04.095Z,11.28
2017-04-11T08:25:05.338Z,11.39
2017-04-11T08:26:06.604Z,11.29
2017-04-11T08:27:07.882Z,11.32
2017-04-11T08:28:09.165Z,11.31
2017-04-11T08:29:10.412Z,11.29
2017-04-11T08:30:11.651Z,11.35
2017-04-11T08:31:12.909Z,11.41
2017-04-11T08:32:14.266Z,11.53
2017-04-11T08:33:15.492Z,11.64
2017-04-11T08:34:16.738Z,11.71
2017-04-11T08:35:17.994Z,11.72
2017-04-11T08:36:19.242Z,11.82
2017-04-11T08:37:20.529Z,11.97
2017-04-11T08:38:21.842Z,12.02
2017-04-11T08:39:23.163Z,12.15
2017-04-11T08:40:24.614Z,12.29
2017-04-11T08:41:25.895Z,12.44
2017-04-11T08:42:27.282Z,12.56
2017-04-11T08:43:28.556Z,12.69
2017-04-11T08:44:29.810Z,12.74
2017-04-11T08:45:31.072Z,12.85
2017-04-11T08:46:32.310Z,12.97
2017-04-11T08:47:33.551Z,13.09
2017-04-11T08:48:34.870Z,13.25
2017-04-11T08:49:36.203Z,13.47
2017-04-11T08:50:37.436Z,13.58
2017-04-11T08:51:38.670Z,13.62
2017-04-11T08:52:39.922Z,13.71
2017-04-11T08:53:41.162Z,13.83
2017-04-11T08:54:42.482Z,13.98
2017-04-11T08:55:43.732Z,13.88
2017-04-11T08:56:44.980Z,13.84
2017-04-11T08:57:46.246Z,13.81
2017-04-11T08:58:47.480Z,14.01
2017-04-11T08:59:48.792Z,14.07
2017-04-11T09:00:50.047Z,13.89
2017-04-11T09:01:51.346Z,13.79
2017-04-11T09:02:52.634Z,13.65
2017-04-11T09:03:53.916Z,13.76
2017-04-11T09:04:55.125Z,13.7
2017-04-11T09:05:56.382Z,13.73
2017-04-11T09:06:57.633Z,13.69
2017-04-11T09:07:58.950Z,13.52
2017-04-11T09:09:00.172Z,13.52
2017-04-11T09:10:01.435Z,14.28
2017-04-11T09:11:02.670Z,15.36
2017-04-11T09:12:03.950Z,16.58
2017-04-11T09:13:05.219Z,17.62
2017-04-11T09:14:06.513Z,18.43
2017-04-11T09:15:07.746Z,19.25
2017-04-11T09:16:08.976Z,19.55
2017-04-11T09:17:10.227Z,20
2017-04-11T09:18:11.486Z,20.41
2017-04-11T09:19:12.814Z,20.46
2017-04-11T09:20:14.022Z,20.42
2017-04-11T09:21:15.271Z,20.76
2017-04-11T09:22:16.572Z,21.34
2017-04-11T09:23:17.856Z,21.45
2017-04-11T09:24:19.092Z,21.71
2017-04-11T09:25:20.360Z,21.79
2017-04-11T09:26:21.607Z,21.88
2017-04-11T09:27:23.079Z,22.14
2017-04-11T09:28:24.334Z,22.1
2017-04-11T09:29:25.582Z,22.23
2017-04-11T09:30:26.842Z,22.34
2017-04-11T09:31:28.101Z,22.69
2017-04-11T09:32:29.373Z,22.92
2017-04-11T09:33:30.790Z,23.14
2017-04-11T09:34:32.102Z,23.23
2017-04-11T09:35:33.300Z,23.76
2017-04-11T09:36:34.584Z,24.31
2017-04-11T09:37:36.095Z,25.01
2017-04-11T09:38:37.362Z,25.2
2017-04-11T09:39:38.604Z,25.35
2017-04-11T09:40:39.899Z,25.57
2017-04-11T09:41:41.124Z,25.83
2017-04-11T09:42:42.405Z,25.84
2017-04-11T09:43:43.642Z,25.87
2017-04-11T09:44:44.927Z,25.77
2017-04-11T09:45:46.218Z,25.49
2017-04-11T09:46:47.584Z,25.89
2017-04-11T09:47:48.839Z,25.83
2017-04-11T09:48:50.101Z,26.24
2017-04-11T09:49:51.470Z,26.54
2017-04-11T09:50:52.781Z,26.65
2017-04-11T09:51:54.050Z,26.95
2017-04-11T09:52:55.315Z,26.74
2017-04-11T09:53:56.594Z,26.95
2017-04-11T09:54:57.856Z,27.48
2017-04-11T09:55:59.127Z,28.03
2017-04-11T09:57:00.479Z,28.54
2017-04-11T09:58:01.759Z,29.06
2017-04-11T09:59:03.009Z,28.93
2017-04-11T10:00:04.286Z,28.68
2017-04-11T10:01:05.529Z,28.47
2017-04-11T10:02:06.788Z,28.41
2017-04-11T10:03:08.125Z,29
2017-04-11T10:04:09.359Z,29.29
2017-04-11T10:05:10.748Z,29.07
2017-04-11T10:06:12.104Z,28.75
2017-04-11T10:07:13.419Z,28.35
2017-04-11T10:08:14.643Z,27.94
2017-04-11T10:09:15.914Z,27.59
2017-04-11T10:10:17.166Z,27.24
2017-04-11T10:11:18.441Z,26.73
2017-04-11T10:12:19.686Z,26.64
2017-04-11T10:13:21.051Z,26.52
2017-04-11T10:14:22.320Z,26.77
2017-04-11T10:15:23.603Z,27.23
2017-04-11T10:16:24.821Z,27.39
2017-04-11T10:17:26.114Z,27.05
2017-04-11T10:18:27.346Z,26.64
2017-04-11T10:19:28.663Z,26.06
2017-04-11T10:20:30.066Z,25.34
2017-04-11T10:21:31.213Z,24.87
2017-04-11T10:22:32.461Z,24.08
2017-04-11T10:23:33.709Z,23.58
2017-04-11T10:24:35.048Z,22.83
2017-04-11T10:25:36.487Z,22.65
2017-04-11T10:26:37.919Z,22.34
2017-04-11T10:27:39.077Z,21.81
2017-04-11T10:28:40.348Z,21.36
2017-04-11T10:29:41.595Z,20.53
2017-04-11T10:30:42.834Z,20.05
2017-04-11T10:31:44.265Z,19.84
2017-04-11T10:32:45.734Z,19.46
2017-04-11T10:33:46.883Z,19.25
2017-04-11T10:34:48.137Z,19.05
2017-04-11T10:35:49.400Z,18.8
2017-04-11T10:36:50.643Z,18.68
2017-04-11T10:37:51.920Z,18.55
2017-04-11T10:38:53.194Z,18.44
2017-04-11T10:39:54.430Z,18.31
2017-04-11T10:40:55.651Z,18.04
2017-04-11T10:41:56.956Z,17.7
2017-04-11T10:42:58.202Z,17.43
2017-04-11T10:43:59.458Z,17.43
2017-04-11T10:45:00.743Z,17.26
2017-04-11T10:46:02.012Z,17.2
2017-04-11T10:47:03.269Z,17.11
2017-04-11T10:48:04.592Z,16.95
2017-04-11T10:49:05.880Z,16.81
2017-04-11T10:50:07.167Z,16.85
2017-04-11T10:51:08.417Z,16.73
2017-04-11T10:52:09.729Z,16.73
2017-04-11T10:53:10.933Z,16.75
2017-04-11T10:54:12.189Z,16.58
2017-04-11T10:55:13.449Z,16.65
2017-04-11T10:56:14.753Z,16.8
2017-04-11T10:57:16.005Z,16.8
2017-04-11T10:58:17.246Z,16.68
2017-04-11T10:59:18.492Z,16.63
2017-04-11T11:00:19.762Z,16.73
2017-04-11T11:01:21.024Z,16.49
2017-04-11T11:02:22.333Z,16.5
2017-04-11T11:03:23.581Z,16.23
2017-04-11T11:04:24.935Z,16.22
2017-04-11T11:05:26.157Z,16.14
2017-04-11T11:06:27.426Z,15.92
2017-04-11T11:07:28.723Z,15.94
2017-04-11T11:08:30.013Z,16
2017-04-11T11:09:31.245Z,15.93
2017-04-11T11:10:32.500Z,15.97
2017-04-11T11:11:33.738Z,15.63
2017-04-11T11:12:35.103Z,15.68
2017-04-11T11:13:36.470Z,15.49
2017-04-11T11:14:37.598Z,15.63
2017-04-11T11:15:38.831Z,15.67
2017-04-11T11:16:40.071Z,15.61
2017-04-11T11:17:41.343Z,15.68
2017-04-11T11:18:42.588Z,15.93
2017-04-11T11:19:43.931Z,16.25
2017-04-11T11:20:45.206Z,16.45
2017-04-11T11:21:46.448Z,16.58
2017-04-11T11:22:47.699Z,16.73
2017-04-11T11:23:48.914Z,16.45
2017-04-11T11:24:50.191Z,16.09
2017-04-11T11:25:51.459Z,16.12
2017-04-11T11:26:52.724Z,15.97
2017-04-11T11:27:54.021Z,16.04
2017-04-11T11:28:55.261Z,16.14
2017-04-11T11:29:56.578Z,15.97
2017-04-11T11:30:57.815Z,15.94
2017-04-11T11:31:59.223Z,15.97
2017-04-11T11:33:00.465Z,16
2017-04-11T11:34:01.746Z,16.18
2017-04-11T11:35:03.017Z,16.2
2017-04-11T11:36:04.249Z,16.42
2017-04-11T11:37:05.504Z,16.44
2017-04-11T11:38:06.748Z,16.49
2017-04-11T11:39:08.030Z,16.63
2017-04-11T11:40:09.263Z,16.68
2017-04-11T11:41:10.512Z,16.75
2017-04-11T11:42:11.750Z,16.8
2017-04-11T11:43:13.017Z,16.7
2017-04-11T11:44:14.277Z,16.88
2017-04-11T11:45:15.517Z,16.81
2017-04-11T11:46:16.769Z,16.86
2017-04-11T11:47:18.023Z,16.9
2017-04-11T11:48:19.252Z,16.99
2017-04-11T11:49:20.595Z,17.07
2017-04-11T11:50:21.842Z,16.93
2017-04-11T11:51:23.129Z,16.81
2017-04-11T11:52:24.382Z,16.74
2017-04-11T11:53:25.774Z,16.77
2017-04-11T11:54:26.908Z,16.88
2017-04-11T11:55:28.156Z,16.9
2017-04-11T11:56:29.395Z,17.11
2017-04-11T11:57:30.732Z,17.03
2017-04-11T11:58:31.992Z,17.2
2017-04-11T11:59:33.215Z,17.15
2017-04-11T12:00:34.455Z,17.28
2017-04-11T12:01:35.703Z,17.23
2017-04-11T12:02:36.951Z,17.25
2017-04-11T12:03:38.207Z,17.04
2017-04-11T12:04:39.449Z,17.03
2017-04-11T12:05:40.692Z,17.07
2017-04-11T12:06:41.966Z,17.06
2017-04-11T12:07:43.188Z,17.07
2017-04-11T12:08:44.474Z,16.86
2017-04-11T12:09:45.710Z,16.81
2017-04-11T12:10:47.012Z,16.59
2017-04-11T12:11:48.264Z,16.73
2017-04-11T12:12:49.503Z,16.71
2017-04-11T12:13:50.797Z,16.75
2017-04-11T12:14:52.061Z,16.77
2017-04-11T12:15:53.280Z,16.78
2017-04-11T12:16:54.701Z,16.77
2017-04-11T12:17:55.937Z,16.58
2017-04-11T12:18:57.220Z,16.56
2017-04-11T12:19:58.470Z,16.44
2017-04-11T12:20:59.711Z,16.27
2017-04-11T12:22:00.994Z,16.3
2017-04-11T12:23:02.217Z,16.27
2017-04-11T12:24:03.564Z,16.22
2017-04-11T12:25:04.885Z,16.12
2017-04-11T12:26:06.142Z,16.04
2017-04-11T12:27:07.388Z,16
2017-04-11T12:28:08.613Z,15.89
2017-04-11T12:29:09.853Z,15.99
2017-04-11T12:30:11.348Z,15.88
2017-04-11T12:31:12.603Z,15.84
2017-04-11T12:32:13.852Z,15.67
2017-04-11T12:33:15.125Z,15.56
2017-04-11T12:34:16.356Z,15.41
2017-04-11T12:35:17.633Z,15.33
2017-04-11T12:36:18.917Z,15.11
2017-04-11T12:37:20.151Z,15.09
2017-04-11T12:38:21.403Z,15.02
2017-04-11T12:39:22.674Z,15.01
2017-04-11T12:40:23.940Z,14.87
2017-04-11T12:41:25.159Z,14.75
2017-04-11T12:42:26.438Z,14.54
2017-04-11T12:43:27.702Z,14.53
2017-04-11T12:44:28.923Z,14.46
2017-04-11T12:45:30.174Z,14.44
2017-04-11T12:46:31.425Z,14.47
2017-04-11T12:47:32.785Z,14.34
2017-04-11T12:48:34.109Z,14.31
2017-04-11T12:49:35.362Z,14.32
2017-04-11T12:50:36.616Z,14.24
2017-04-11T12:51:37.863Z,14.14
2017-04-11T12:52:39.151Z,14.14
2017-04-11T12:53:40.428Z,13.95
2017-04-11T12:54:41.640Z,13.94
2017-04-11T12:55:42.905Z,13.88
2017-04-11T12:56:44.157Z,13.92
2017-04-11T12:57:45.399Z,14.09
2017-04-11T12:58:46.668Z,14.13
2017-04-11T12:59:47.886Z,14.13
2017-04-11T13:00:49.123Z,14.25
2017-04-11T13:01:50.382Z,14.32
2017-04-11T13:02:51.648Z,14.38
2017-04-11T13:03:52.892Z,14.39
2017-04-11T13:04:54.129Z,14.37
2017-04-11T13:05:55.374Z,14.47
2017-04-11T13:06:56.661Z,14.47
2017-04-11T13:07:57.893Z,14.35
2017-04-11T13:08:59.159Z,14.31
2017-04-11T13:10:00.401Z,14.31
2017-04-11T13:11:01.656Z,14.16
2017-04-11T13:12:03.039Z,14.24
2017-04-11T13:13:04.302Z,14.25
2017-04-11T13:14:05.531Z,14.14
2017-04-11T13:15:06.753Z,14.1
2017-04-11T13:16:07.989Z,14.1
2017-04-11T13:17:09.228Z,14.06
2017-04-11T13:18:10.500Z,13.92
2017-04-11T13:19:11.749Z,13.98
2017-04-11T13:20:13.042Z,13.77
2017-04-11T13:21:14.566Z,13.83
2017-04-11T13:22:15.801Z,13.88
2017-04-11T13:23:17.041Z,13.88
2017-04-11T13:24:18.427Z,13.89
2017-04-11T13:25:19.674Z,13.88
2017-04-11T13:26:20.919Z,13.84
2017-04-11T13:27:22.160Z,13.77